createdAt,value
2018-10-03T00:00:27.035Z,99956.59
2018-10-03T00:02:55.586Z,99953.68
2018-10-03T00:05:24.132Z,99961.45
2018-10-03T00:07:52.683Z,99961.45
2018-10-03T00:10:21.256Z,99958.15
2018-10-03T00:12:49.831Z,99962.48
2018-10-03T00:15:18.348Z,99950.94
2018-10-03T00:17:46.912Z,99955.91
2018-10-03T00:20:15.444Z,99960.25
2018-10-03T00:22:44.005Z,99967.66
2018-10-03T00:25:12.533Z,99967.81
2018-10-03T00:27:41.088Z,99968.58
2018-10-03T00:30:09.644Z,99966.03
2018-10-03T00:32:38.196Z,99960.86
2018-10-03T00:35:06.724Z,99971.00
2018-10-03T00:37:35.270Z,99969.61
2018-10-03T00:40:03.838Z,99976.09
2018-10-03T00:42:32.401Z,99973.16
2018-10-03T00:45:00.919Z,99973.63
2018-10-03T00:47:29.480Z,99975.31
2018-10-03T00:49:57.986Z,99969.13
2018-10-03T00:52:26.540Z,99971.37
2018-10-03T00:54:55.053Z,99971.92
2018-10-03T00:57:23.609Z,99975.94
2018-10-03T00:59:52.148Z,99975.86
2018-10-03T01:02:20.781Z,99971.00
2018-10-03T01:04:49.313Z,99969.45
2018-10-03T01:07:17.831Z,99968.69
2018-10-03T01:09:46.385Z,99967.46
2018-10-03T01:12:14.944Z,99968.14
2018-10-03T01:14:43.499Z,99963.20
2018-10-03T01:17:12.016Z,99962.44
2018-10-03T01:19:40.569Z,99962.80
2018-10-03T01:22:09.092Z,99955.08
2018-10-03T01:24:37.632Z,99963.48
2018-10-03T01:27:06.349Z,99967.81
2018-10-03T01:29:34.892Z,99975.70
2018-10-03T01:32:03.441Z,99971.89
2018-10-03T01:34:32.008Z,99960.45
2018-10-03T01:37:00.517Z,99971.89
2018-10-03T01:39:29.052Z,99975.39
2018-10-03T01:41:57.624Z,99968.02
2018-10-03T01:44:26.200Z,99958.66
2018-10-03T01:46:54.717Z,99965.23
2018-10-03T01:49:23.253Z,99973.13
2018-10-03T01:51:51.771Z,99972.52
2018-10-03T01:54:20.314Z,99950.25
2018-10-03T01:56:48.819Z,99955.87
2018-10-03T01:59:17.370Z,99950.85
2018-10-03T02:01:45.885Z,99954.23
2018-10-03T02:04:14.440Z,99960.41
2018-10-03T02:06:42.961Z,99964.27
2018-10-03T02:09:11.500Z,99955.47
2018-10-03T02:11:40.012Z,99961.33
2018-10-03T02:14:08.560Z,99957.94
2018-10-03T02:16:37.045Z,99956.55
2018-10-03T02:19:05.600Z,99961.72
2018-10-03T02:21:34.117Z,99961.48
2018-10-03T02:24:02.653Z,99964.43
2018-10-03T02:26:31.145Z,99972.84
2018-10-03T02:28:59.672Z,99967.94
2018-10-03T02:31:28.178Z,99977.81
2018-10-03T02:33:56.744Z,99973.88
2018-10-03T02:36:25.257Z,99968.29
2018-10-03T02:38:53.818Z,99971.20
2018-10-03T02:41:22.316Z,99965.02
2018-10-03T02:43:50.832Z,99963.70
2018-10-03T02:46:19.684Z,99959.69
2018-10-03T02:48:48.177Z,99968.17
2018-10-03T02:51:16.716Z,99972.91
2018-10-03T02:53:45.244Z,99972.44
2018-10-03T02:56:13.801Z,99964.63
2018-10-03T02:58:42.293Z,99966.42
2018-10-03T03:01:10.822Z,99965.94
2018-10-03T03:03:39.325Z,99966.50
2018-10-03T03:06:09.089Z,99968.05
2018-10-03T03:08:38.060Z,99965.98
2018-10-03T03:11:06.965Z,99956.55
2018-10-03T03:13:35.462Z,99963.84
2018-10-03T03:16:04.093Z,99973.28
2018-10-03T03:18:32.832Z,99980.33
2018-10-03T03:21:01.388Z,99980.05
2018-10-03T03:23:29.905Z,99987.45
2018-10-03T03:25:58.452Z,99989.77
2018-10-03T03:28:26.969Z,99989.00
2018-10-03T03:30:55.529Z,99992.39
2018-10-03T03:33:24.164Z,99985.53
2018-10-03T03:35:52.704Z,99992.70
2018-10-03T03:38:21.213Z,99991.00
2018-10-03T03:40:49.784Z,99997.89
2018-10-03T03:43:18.301Z,100000.11
2018-10-03T03:45:46.877Z,99998.05
2018-10-03T03:48:15.401Z,100005.22
2018-10-03T03:50:43.945Z,100001.67
2018-10-03T03:53:12.461Z,99998.80
2018-10-03T03:55:41.021Z,99992.39
2018-10-03T03:58:09.540Z,99992.23
2018-10-03T04:00:38.083Z,99991.00
2018-10-03T04:03:06.604Z,99998.72
2018-10-03T04:05:35.157Z,100004.38
2018-10-03T04:08:03.677Z,100011.62
2018-10-03T04:10:32.229Z,100010.79
2018-10-03T04:13:00.739Z,100012.39
2018-10-03T04:15:29.340Z,100005.66
2018-10-03T04:17:57.843Z,100009.52
2018-10-03T04:20:26.393Z,100011.83
2018-10-03T04:22:54.893Z,100014.30
2018-10-03T04:25:23.400Z,100007.89
2018-10-03T04:27:52.002Z,100012.11
2018-10-03T04:30:20.523Z,100012.79
2018-10-03T04:32:49.073Z,100020.99
2018-10-03T04:35:17.576Z,100023.23
2018-10-03T04:37:46.141Z,100026.65
2018-10-03T04:40:14.738Z,100027.56
2018-10-03T04:42:43.624Z,100027.97
2018-10-03T04:45:12.134Z,100031.71
2018-10-03T04:47:40.689Z,100028.92
2018-10-03T04:50:09.204Z,100026.30
2018-10-03T04:52:37.748Z,100029.88
2018-10-03T04:55:06.301Z,100048.56
2018-10-03T04:57:34.844Z,100054.50
2018-10-03T05:00:03.450Z,100047.17
2018-10-03T05:02:32.026Z,100041.95
2018-10-03T05:05:00.521Z,100042.34
2018-10-03T05:07:29.060Z,100040.63
2018-10-03T05:09:57.568Z,100048.92
2018-10-03T05:12:26.193Z,100048.76
2018-10-03T05:14:54.694Z,100045.53
2018-10-03T05:17:23.253Z,100052.23
2018-10-03T05:19:51.806Z,100064.37
2018-10-03T05:22:20.352Z,100056.85
2018-10-03T05:24:48.872Z,100055.53
2018-10-03T05:27:17.432Z,100058.95
2018-10-03T05:29:45.960Z,100058.88
2018-10-03T05:32:14.548Z,100053.14
2018-10-03T05:34:43.113Z,100068.36
2018-10-03T05:37:11.630Z,100066.49
2018-10-03T05:39:40.193Z,100059.91
2018-10-03T05:42:08.724Z,100067.80
2018-10-03T05:44:37.276Z,100071.23
2018-10-03T05:47:06.000Z,100083.43
2018-10-03T05:49:34.581Z,100084.19
2018-10-03T05:52:03.104Z,100082.98
2018-10-03T05:54:31.695Z,100061.44
2018-10-03T05:57:00.204Z,100091.08
2018-10-03T05:59:28.754Z,100096.34
2018-10-03T06:01:57.288Z,100100.60
2018-10-03T06:04:25.845Z,100095.26
2018-10-03T06:06:54.369Z,100102.20
2018-10-03T06:09:22.925Z,100103.44
2018-10-03T06:11:51.461Z,100114.35
2018-10-03T06:14:20.017Z,100111.72
2018-10-03T06:16:48.556Z,100114.64
2018-10-03T06:19:17.132Z,100123.72
2018-10-03T06:21:45.713Z,100127.42
2018-10-03T06:24:14.325Z,100134.00
2018-10-03T06:26:46.118Z,100138.79
2018-10-03T06:29:14.668Z,100138.63
2018-10-03T06:31:43.466Z,100140.94
2018-10-03T06:34:12.060Z,100143.05
2018-10-03T06:36:40.657Z,100145.87
2018-10-03T06:39:10.359Z,100149.19
2018-10-03T06:41:41.300Z,100148.35
2018-10-03T06:44:11.203Z,100149.90
2018-10-03T06:46:40.015Z,100153.78
2018-10-03T06:49:08.959Z,100162.27
2018-10-03T06:51:37.693Z,100167.93
2018-10-03T06:54:06.265Z,100167.69
2018-10-03T06:56:34.888Z,100174.55
2018-10-03T06:59:03.436Z,100188.63
2018-10-03T07:01:32.093Z,100188.39
2018-10-03T07:04:00.621Z,100195.05
2018-10-03T07:06:29.202Z,100192.81
2018-10-03T07:08:57.868Z,100201.62
2018-10-03T07:11:26.428Z,100201.38
2018-10-03T07:13:54.972Z,100197.43
2018-10-03T07:16:23.782Z,100208.00
2018-10-03T07:18:52.289Z,100201.61
2018-10-03T07:21:20.888Z,100205.03
2018-10-03T07:23:49.385Z,100207.95
2018-10-03T07:26:28.323Z,100207.66
2018-10-03T07:28:56.896Z,100208.34
2018-10-03T07:31:25.437Z,100200.13
2018-10-03T07:33:53.951Z,100198.39
2018-10-03T07:36:22.954Z,100195.92
2018-10-03T07:38:51.549Z,100190.09
2018-10-03T07:41:20.105Z,100203.69
2018-10-03T07:43:48.623Z,100208.23
2018-10-03T07:46:17.161Z,100206.27
2018-10-03T07:48:45.672Z,100211.05
2018-10-03T07:51:14.230Z,100200.63
2018-10-03T07:53:42.941Z,100205.52
2018-10-03T07:56:11.470Z,100208.37
2018-10-03T07:58:39.973Z,100218.36
2018-10-03T08:01:08.512Z,100222.00
2018-10-03T08:03:37.297Z,100228.07
2018-10-03T08:06:05.813Z,100229.73
2018-10-03T08:08:44.386Z,100227.89
2018-10-03T08:11:16.965Z,100248.02
2018-10-03T08:14:13.067Z,100247.86
2018-10-03T08:16:44.475Z,100247.28
2018-10-03T08:19:15.380Z,100254.80
2018-10-03T08:21:45.369Z,100257.27
2018-10-03T08:24:15.063Z,100255.69
2018-10-03T08:26:45.053Z,100261.05
2018-10-03T08:29:13.910Z,100259.73
2018-10-03T08:31:42.431Z,100259.17
2018-10-03T08:34:10.986Z,100268.62
2018-10-03T08:36:39.508Z,100265.77
2018-10-03T08:39:10.165Z,100272.40
2018-10-03T08:41:38.678Z,100276.18
2018-10-03T08:44:07.346Z,100277.02
2018-10-03T08:46:35.852Z,100281.81
2018-10-03T08:49:04.418Z,100284.19
2018-10-03T08:51:32.936Z,100286.17
2018-10-03T08:54:01.473Z,100279.80
2018-10-03T08:56:30.089Z,100281.13
2018-10-03T08:58:58.933Z,100282.98
2018-10-03T09:01:29.793Z,100279.98
2018-10-03T09:03:59.128Z,100277.53
2018-10-03T09:06:27.638Z,100281.48
2018-10-03T09:08:56.179Z,100287.52
2018-10-03T09:11:24.693Z,100283.73
2018-10-03T09:13:53.685Z,100276.95
2018-10-03T09:16:23.132Z,100282.14
2018-10-03T09:18:52.527Z,100289.77
2018-10-03T09:21:21.067Z,100288.84
2018-10-03T09:23:53.589Z,100291.50
2018-10-03T09:26:24.148Z,100293.47
2018-10-03T09:28:52.852Z,100291.48
2018-10-03T09:31:21.476Z,100292.62
2018-10-03T09:33:50.029Z,100286.77
2018-10-03T09:36:19.129Z,100298.37
2018-10-03T09:38:47.658Z,100292.04
2018-10-03T09:41:16.237Z,100289.61
2018-10-03T09:43:44.780Z,100295.05
2018-10-03T09:46:13.329Z,100293.77
2018-10-03T09:48:42.038Z,100293.17
2018-10-03T09:51:10.627Z,100293.27
2018-10-03T09:53:39.139Z,100286.88
2018-10-03T09:56:07.752Z,100290.25
2018-10-03T09:58:36.352Z,100287.72
2018-10-03T10:01:10.140Z,100295.42
2018-10-03T10:03:38.645Z,100284.40
2018-10-03T10:06:07.437Z,100286.48
2018-10-03T10:08:35.945Z,100286.77
2018-10-03T10:11:04.560Z,100283.60
2018-10-03T10:13:33.023Z,100281.80
2018-10-03T10:16:01.833Z,100284.44
2018-10-03T10:18:30.352Z,100282.95
2018-10-03T10:21:00.083Z,100281.27
2018-10-03T10:23:28.642Z,100285.57
2018-10-03T10:25:57.181Z,100291.08
2018-10-03T10:28:25.737Z,100294.46
2018-10-03T10:30:54.261Z,100296.37
2018-10-03T10:33:23.433Z,100297.49
2018-10-03T10:35:52.593Z,100303.23
2018-10-03T10:38:21.533Z,100308.72
2018-10-03T10:40:52.937Z,100301.87
2018-10-03T10:43:21.656Z,100308.17
2018-10-03T10:45:50.158Z,100306.66
2018-10-03T10:48:19.174Z,100299.50
2018-10-03T10:50:48.341Z,100308.14
2018-10-03T10:53:17.959Z,100308.59
2018-10-03T10:55:48.021Z,100312.73
2018-10-03T10:58:16.840Z,100316.47
2018-10-03T11:00:45.349Z,100321.13
2018-10-03T11:03:14.012Z,100319.16
2018-10-03T11:05:42.932Z,100315.83
2018-10-03T11:08:12.093Z,100312.02
2018-10-03T11:10:40.616Z,100320.73
2018-10-03T11:13:09.140Z,100315.14
2018-10-03T11:15:39.484Z,100317.73
2018-10-03T11:18:13.982Z,100317.64
2018-10-03T11:20:42.680Z,100318.14
2018-10-03T11:23:11.384Z,100318.75
2018-10-03T11:25:39.988Z,100317.00
2018-10-03T11:28:08.641Z,100313.27
2018-10-03T11:30:37.487Z,100315.55
2018-10-03T11:33:06.832Z,100314.05
2018-10-03T11:35:37.289Z,100323.02
2018-10-03T11:38:06.739Z,100318.72
2018-10-03T11:40:35.914Z,100313.47
2018-10-03T11:43:09.797Z,100316.53
2018-10-03T11:45:38.392Z,100317.05
2018-10-03T11:48:07.552Z,100319.70
2018-10-03T11:50:40.284Z,100313.30
2018-10-03T11:53:09.103Z,100324.36
2018-10-03T11:55:37.845Z,100325.26
2018-10-03T11:58:12.333Z,100319.78
2018-10-03T12:00:48.739Z,100317.08
2018-10-03T12:03:22.379Z,100313.56
2018-10-03T12:05:51.042Z,100305.41
2018-10-03T12:08:23.415Z,100312.45
2018-10-03T12:10:55.962Z,100310.69
2018-10-03T12:13:24.612Z,100314.05
2018-10-03T12:15:53.229Z,100313.94
2018-10-03T12:18:21.812Z,100304.87
2018-10-03T12:20:50.447Z,100306.21
2018-10-03T12:23:19.025Z,100310.72
2018-10-03T12:25:47.539Z,100321.36
2018-10-03T12:28:16.301Z,100312.40
2018-10-03T12:30:46.429Z,100317.92
2018-10-03T12:33:17.075Z,100309.48
2018-10-03T12:35:45.637Z,100317.11
2018-10-03T12:38:14.248Z,100310.73
2018-10-03T12:40:42.808Z,100313.00
2018-10-03T12:43:11.317Z,100311.43
2018-10-03T12:45:39.873Z,100319.45
2018-10-03T12:48:09.207Z,100310.98
2018-10-03T12:50:37.788Z,100304.69
2018-10-03T12:53:06.344Z,100307.20
2018-10-03T12:55:35.058Z,100309.44
2018-10-03T12:58:20.056Z,100305.19
2018-10-03T13:00:56.309Z,100306.13
2018-10-03T13:03:32.000Z,100294.84
2018-10-03T13:06:07.287Z,100302.64
2018-10-03T13:08:45.230Z,100300.97
2018-10-03T13:11:19.534Z,100309.03
2018-10-03T13:13:54.541Z,100299.84
2018-10-03T13:16:31.202Z,100303.33
2018-10-03T13:19:07.446Z,100310.56
2018-10-03T13:21:43.973Z,100317.03
2018-10-03T13:24:19.429Z,100306.53
2018-10-03T13:26:49.425Z,100296.09
2018-10-03T13:29:17.985Z,100302.39
2018-10-03T13:31:46.500Z,100295.22
2018-10-03T13:34:15.024Z,100296.92
2018-10-03T13:36:43.564Z,100299.25
2018-10-03T13:39:16.449Z,100294.36
2018-10-03T13:41:45.355Z,100292.22
2018-10-03T13:44:13.876Z,100291.95
2018-10-03T13:46:42.487Z,100287.38
2018-10-03T13:49:10.972Z,100289.20
2018-10-03T13:51:40.188Z,100285.20
2018-10-03T13:54:15.414Z,100287.31
2018-10-03T13:56:50.239Z,100289.56
2018-10-03T13:59:25.204Z,100281.19
2018-10-03T14:02:03.164Z,100277.95
2018-10-03T14:04:33.506Z,100280.48
2018-10-03T14:07:02.124Z,100280.70
2018-10-03T14:09:30.760Z,100273.80
2018-10-03T14:11:59.301Z,100282.26
2018-10-03T14:14:27.912Z,100280.76
2018-10-03T14:16:59.525Z,100274.27
2018-10-03T14:19:28.021Z,100269.95
2018-10-03T14:21:57.092Z,100272.08
2018-10-03T14:24:34.953Z,100284.85
2018-10-03T14:27:03.581Z,100282.41
2018-10-03T14:29:34.595Z,100282.00
2018-10-03T14:32:03.214Z,100279.66
2018-10-03T14:34:46.493Z,100277.67
2018-10-03T14:37:16.904Z,100275.56
2018-10-03T14:39:46.877Z,100269.97
2018-10-03T14:42:15.420Z,100270.69
2018-10-03T14:44:43.972Z,100278.55
2018-10-03T14:47:12.580Z,100271.39
2018-10-03T14:49:43.467Z,100281.25
2018-10-03T14:52:12.899Z,100270.63
2018-10-03T14:54:41.432Z,100276.70
2018-10-03T14:57:11.527Z,100276.70
2018-10-03T14:59:49.157Z,100270.54
2018-10-03T15:02:17.921Z,100277.52
2018-10-03T15:04:46.436Z,100275.66
2018-10-03T15:07:15.057Z,100277.72
2018-10-03T15:09:43.565Z,100284.56
2018-10-03T15:12:12.127Z,100289.19
2018-10-03T15:14:41.493Z,100289.41
2018-10-03T15:17:10.656Z,100284.16
2018-10-03T15:19:39.792Z,100289.77
2018-10-03T15:22:08.637Z,100281.52
2018-10-03T15:24:37.157Z,100287.02
2018-10-03T15:27:06.773Z,100288.59
2018-10-03T15:29:35.289Z,100288.17
2018-10-03T15:32:03.840Z,100293.83
2018-10-03T15:34:32.609Z,100296.25
2018-10-03T15:37:01.210Z,100289.88
2018-10-03T15:39:29.747Z,100290.63
2018-10-03T15:41:58.295Z,100292.94
2018-10-03T15:44:26.824Z,100292.91
2018-10-03T15:46:59.170Z,100296.71
2018-10-03T15:49:27.732Z,100296.72
2018-10-03T15:51:56.269Z,100290.08
2018-10-03T15:54:24.785Z,100304.70
2018-10-03T15:56:53.334Z,100297.67
2018-10-03T15:59:21.869Z,100300.09
2018-10-03T16:01:50.542Z,100297.34
2018-10-03T16:04:19.052Z,100303.62
2018-10-03T16:06:47.647Z,100300.04
2018-10-03T16:09:19.139Z,100303.31
2018-10-03T16:11:48.715Z,100307.24
2018-10-03T16:14:19.736Z,100316.01
2018-10-03T16:16:48.531Z,100315.93
2018-10-03T16:19:17.077Z,100315.70
2018-10-03T16:21:45.826Z,100319.38
2018-10-03T16:24:15.588Z,100321.40
2018-10-03T16:26:44.459Z,100319.79
2018-10-03T16:29:12.959Z,100325.66
2018-10-03T16:31:41.485Z,100326.40
2018-10-03T16:34:10.053Z,100330.09
2018-10-03T16:36:38.568Z,100326.50
2018-10-03T16:39:08.860Z,100323.91
2018-10-03T16:41:37.652Z,100336.19
2018-10-03T16:44:06.232Z,100326.07
2018-10-03T16:46:35.540Z,100331.93
2018-10-03T16:49:04.121Z,100326.67
2018-10-03T16:51:32.854Z,100330.74
2018-10-03T16:54:02.333Z,100332.25
2018-10-03T16:56:31.054Z,100333.66
2018-10-03T16:58:59.600Z,100339.59
2018-10-03T17:01:28.186Z,100344.05
2018-10-03T17:03:56.765Z,100344.13
2018-10-03T17:06:29.206Z,100348.14
2018-10-03T17:09:00.448Z,100347.25
2018-10-03T17:11:30.759Z,100349.84
2018-10-03T17:14:39.756Z,100342.45
2018-10-03T17:17:25.537Z,100344.16
2018-10-03T17:20:03.757Z,100351.12
2018-10-03T17:22:48.990Z,100353.02
2018-10-03T17:25:22.042Z,100357.08
2018-10-03T17:27:55.472Z,100355.27
2018-10-03T17:30:27.301Z,100361.52
2018-10-03T17:33:03.396Z,100357.70
2018-10-03T17:35:35.562Z,100359.80
2018-10-03T17:38:05.811Z,100361.39
2018-10-03T17:40:35.748Z,100369.84
2018-10-03T17:43:08.674Z,100369.32
2018-10-03T17:45:39.709Z,100376.17
2018-10-03T17:48:08.407Z,100376.79
2018-10-03T17:50:41.638Z,100375.91
2018-10-03T17:53:21.865Z,100379.56
2018-10-03T17:56:01.322Z,100381.06
2018-10-03T17:58:31.298Z,100389.52
2018-10-03T18:01:02.263Z,100392.98
2018-10-03T18:03:38.050Z,100390.06
2018-10-03T18:06:10.957Z,100399.69
2018-10-03T18:08:44.689Z,100402.33
2018-10-03T18:11:14.596Z,100407.59
2018-10-03T18:13:49.778Z,100408.22
2018-10-03T18:16:18.489Z,100416.17
2018-10-03T18:18:47.071Z,100416.61
2018-10-03T18:21:15.928Z,100417.34
2018-10-03T18:23:44.475Z,100419.30
2018-10-03T18:26:12.978Z,100422.00
2018-10-03T18:28:41.484Z,100427.22
2018-10-03T18:31:10.040Z,100432.29
2018-10-03T18:33:38.544Z,100432.03
2018-10-03T18:36:10.189Z,100439.38
2018-10-03T18:38:41.626Z,100440.16
2018-10-03T18:41:10.786Z,100448.23
2018-10-03T18:43:39.309Z,100449.75
2018-10-03T18:46:07.860Z,100454.27
2018-10-03T18:48:36.387Z,100454.60
2018-10-03T18:51:05.276Z,100462.38
2018-10-03T18:53:33.780Z,100463.37
2018-10-03T18:56:03.798Z,100467.67
2018-10-03T18:58:35.443Z,100469.16
2018-10-03T19:01:05.679Z,100472.27
2018-10-03T19:03:36.128Z,100473.57
2018-10-03T19:06:05.802Z,100471.58
2018-10-03T19:08:36.211Z,100473.55
2018-10-03T19:11:05.845Z,100480.45
2018-10-03T19:13:41.731Z,100476.79
2018-10-03T19:16:18.952Z,100483.92
2018-10-03T19:18:52.411Z,100493.06
2018-10-03T19:21:21.629Z,100477.42
2018-10-03T19:23:50.165Z,100487.81
2018-10-03T19:26:19.309Z,100496.17
2018-10-03T19:28:48.409Z,100496.09
2018-10-03T19:31:18.781Z,100497.50
2018-10-03T19:33:48.696Z,100499.40
2018-10-03T19:36:23.184Z,100491.09
2018-10-03T19:38:53.783Z,100486.07
2018-10-03T19:41:25.756Z,100499.62
2018-10-03T19:43:56.343Z,100495.23
2018-10-03T19:46:31.315Z,100493.05
2018-10-03T19:49:04.391Z,100487.54
2018-10-03T19:51:36.312Z,100491.20
2018-10-03T19:54:06.125Z,100487.31
2018-10-03T19:56:39.635Z,100489.08
2018-10-03T19:59:09.324Z,100491.71
2018-10-03T20:01:38.008Z,100492.21
2018-10-03T20:04:08.594Z,100494.05
2018-10-03T20:06:37.260Z,100489.62
2018-10-03T20:09:08.095Z,100496.14
2018-10-03T20:11:41.921Z,100495.68
2018-10-03T20:14:10.545Z,100490.55
2018-10-03T20:16:39.436Z,100498.45
2018-10-03T20:19:08.504Z,100500.40
2018-10-03T20:21:38.545Z,100496.02
2018-10-03T20:24:07.390Z,100499.22
2018-10-03T20:26:40.640Z,100498.13
2018-10-03T20:29:09.349Z,100504.19
2018-10-03T20:31:41.071Z,100513.47
2018-10-03T20:34:10.096Z,100509.14
2018-10-03T20:36:41.137Z,100505.20
2018-10-03T20:39:10.649Z,100503.42
2018-10-03T20:41:43.606Z,100509.44
2018-10-03T20:44:14.501Z,100510.08
2018-10-03T20:46:45.269Z,100506.41
2018-10-03T20:49:13.772Z,100508.39
2018-10-03T20:51:42.313Z,100514.94
2018-10-03T20:54:10.856Z,100513.58
2018-10-03T20:56:40.874Z,100506.01
2018-10-03T20:59:10.516Z,100503.55
2018-10-03T21:01:41.258Z,100505.61
2018-10-03T21:04:11.345Z,100508.69
2018-10-03T21:06:41.876Z,100502.89
2018-10-03T21:09:12.374Z,100505.90
2018-10-03T21:11:41.349Z,100509.44
2018-10-03T21:14:11.580Z,100506.55
2018-10-03T21:16:41.085Z,100500.09
2018-10-03T21:19:11.797Z,100499.06
2018-10-03T21:21:41.697Z,100498.17
2018-10-03T21:24:12.312Z,100502.41
2018-10-03T21:26:41.337Z,100504.59
2018-10-03T21:29:10.745Z,100504.45
2018-10-03T21:31:40.013Z,100465.30
2018-10-03T21:34:08.580Z,100501.23
2018-10-03T21:36:37.096Z,100496.00
2018-10-03T21:39:07.525Z,100503.41
2018-10-03T21:41:36.205Z,100503.09
2018-10-03T21:44:06.672Z,100503.66
2018-10-03T21:46:35.306Z,100504.55
2018-10-03T21:49:04.313Z,100502.06
2018-10-03T21:51:33.238Z,100497.91
2018-10-03T21:54:02.505Z,100501.19
2018-10-03T21:56:31.205Z,100501.37
2018-10-03T21:59:04.563Z,100495.56
2018-10-03T22:01:33.460Z,100495.23
2018-10-03T22:04:03.973Z,100495.74
2018-10-03T22:06:33.294Z,100488.09
2018-10-03T22:09:03.317Z,100490.52
2018-10-03T22:11:33.386Z,100492.88
2018-10-03T22:14:02.460Z,100487.30
2018-10-03T22:16:31.166Z,100487.87
2018-10-03T22:18:59.950Z,100486.52
2018-10-03T22:21:29.552Z,100485.91
2018-10-03T22:23:58.811Z,100485.13
2018-10-03T22:26:27.701Z,100484.58
2018-10-03T22:28:57.230Z,100490.58
2018-10-03T22:31:26.100Z,100484.27
2018-10-03T22:33:54.849Z,100480.97
2018-10-03T22:36:24.050Z,100486.77
2018-10-03T22:38:53.513Z,100491.19
2018-10-03T22:41:23.051Z,100486.98
2018-10-03T22:43:51.678Z,100488.30
2018-10-03T22:46:20.638Z,100489.80
2018-10-03T22:48:54.588Z,100492.67
2018-10-03T22:51:23.696Z,100494.06
2018-10-03T22:53:52.280Z,100489.80
2018-10-03T22:56:20.800Z,100488.21
2018-10-03T22:58:49.349Z,100495.48
2018-10-03T23:01:17.869Z,100493.48
2018-10-03T23:03:46.428Z,100485.92
2018-10-03T23:06:14.973Z,100487.10
2018-10-03T23:08:43.543Z,100493.77
2018-10-03T23:11:12.069Z,100497.59
2018-10-03T23:13:40.617Z,100498.95
2018-10-03T23:16:09.157Z,100498.91
2018-10-03T23:18:37.713Z,100500.38
2018-10-03T23:21:06.537Z,100500.92
2018-10-03T23:23:35.089Z,100508.22
2018-10-03T23:26:03.595Z,100502.48
2018-10-03T23:28:32.090Z,100505.37
2018-10-03T23:31:00.625Z,100502.39
2018-10-03T23:33:29.128Z,100504.48
2018-10-03T23:35:57.677Z,100499.52
2018-10-03T23:38:26.180Z,100497.31
2018-10-03T23:40:54.751Z,100503.06
2018-10-03T23:43:23.250Z,100503.36
2018-10-03T23:45:51.781Z,100508.16
2018-10-03T23:48:20.277Z,100515.16
2018-10-03T23:50:48.805Z,100517.95
2018-10-03T23:53:17.327Z,100519.06
2018-10-03T23:55:45.889Z,100520.95
2018-10-03T23:58:14.444Z,100520.89
